Beaconsfield, United Kingdom
Current Conditions -  °F | °C
As of 6:50 AM on Saturday 25 Oct 2014 (Local Time) from EGWU Reporting Station
Haze Haze  
Wind Chill: 45°   Ceiling: 4400
Heat Index: 45°   Visibility: 6mi
Dew Point: 45°   Wind: 1mph
Humidity: 100%   Direction: 200°SSW
Pressure: 30.03"   Gusts: NA
Location:  51.61°N, 0.65°W
Report Text: EGWU 250550Z 20001KT 9000 BR BKN044 07/07 Q1017 BLU NOSIG
Loading
Personal Weather Stations






























Interactive Weather Map
Tropical Storm Tracking
New forecast layout! Learn more

10-Day Weather Forecast

Advertisements
Track Severe Weather on mobile